Mobridge Municipal Airport
KMBG : now visible

Airfield :











YOU CAN JOIN US ON...

 
LOGIN :

Register | Disclaimer

   EN    FR    IT 

 









Legend :    VFR   Marginal VFR   IFR   Intensive IFR   Very Intensive IFR
Visi :
Ceiling :
>= 8 km
>= 3000ft
5 to 8 km
1000 to 3000 ft
1500m to 5 km
500 to 1000 ft
800 to 1500m
200 to 500 ft
< 800m
< 200 ft
Symbols :   Thunderstorms  Fog  Heavy snow  Heavy precipitations  Wind > 20 kt






- Airport Elevation : 1716 ft


KMBG - Mobridge Municipal

CURRENT METAR :
  • 212352Z AUTO 16014G22KT 10SM CLR 17/M03 A2991 RMK AO2 SLP139 T01671033 10178 20139 56042

EXPIRED METARs :
  • 212252Z AUTO 18017G24KT 10SM CLR 18/M05 A2995 RMK AO2 SLP150 T01781050
  • 212152Z AUTO 18015G23KT 10SM CLR 17/M05 A2999 RMK AO2 SLP164 T01721050
  • 212052Z AUTO 19014G24KT 10SM CLR 17/M06 A3004 RMK AO2 SLP182 T01671061 58040
  • 211952Z AUTO 19013G21KT 10SM CLR 16/M07 A3009 RMK AO2 SLP198 T01611072

TAF KMBG
Valid from the 22 at 00:00 until the 23 at 00:00 UTC


212320Z 2200/2224 18017G24KT P6SM SKC
FM220200 16011G18KT P6SM SCT250
FM221000 31008KT P6SM BKN170 WS020/33040KT
FM221500 31017G26KT P6SM SCT150
KZMP FIR / North America



MET'MAP, your aeronautical weather chart ! - Copyright ORBIFLY December 2007 - Disclaimer

ORBIFLY MET'MAP TEAM :

Programming & Development : Alexandra Zaïnal
Original concept : Baudouin d'Aumeries
Technical & hardware support : Manuel Goepfert
Assistance : Marc-Olivier Méhu




SOURCES & CREDITS :

   NOAA       Earth
Advisory